Time;durP1;ratioP1;P1;durP2;ratioP2;P2;SDS_P1;SDS_P2;PMS_P1;PMS_P2;Temp;Humidity;BMP_temperature;BMP_pressure;BME280_temperature;BME280_humidity;BME280_pressure;Samples;Min_cycle;Max_cycle;Signal;HPM_P1;HPM_P2
2022/11/18 00:01:49;;;;;;;20.67;4.65;;;13.80;78.30;;;;;;20747940;28;20050;-59
2022/11/18 00:22:12;;;;;;;15.77;4.70;;;13.70;78.30;;;;;;20757742;28;20054;-58
2022/11/18 00:32:13;;;;;;;16.92;4.07;;;13.70;78.00;;;;;;20760851;28;20060;-58
2022/11/18 00:52:36;;;;;;;14.63;3.63;;;13.60;78.10;;;;;;20758422;28;20410;-57
2022/11/18 01:02:37;;;;;;;18.80;4.32;;;13.50;78.30;;;;;;20758490;28;20140;-58
2022/11/18 01:23:20;;;;;;;17.10;4.30;;;13.50;78.40;;;;;;20894061;22;20088;-60
2022/11/18 01:33:22;;;;;;;20.55;4.00;;;13.50;78.20;;;;;;20917172;28;20052;-62
2022/11/18 01:43:24;;;;;;;11.13;2.90;;;13.40;78.10;;;;;;20919372;28;20056;-59
2022/11/18 01:53:31;;;;;;;13.00;3.25;;;13.40;78.00;;;;;;20918143;28;20063;-59
2022/11/18 02:03:34;;;;;;;11.63;3.05;;;13.40;78.00;;;;;;20917953;28;20049;-59
2022/11/18 02:13:36;;;;;;;12.95;3.53;;;13.40;77.80;;;;;;20916964;28;20128;-60
2022/11/18 02:23:41;;;;;;;11.68;3.42;;;13.40;77.70;;;;;;20916940;28;20052;-59
2022/11/18 02:33:54;;;;;;;16.50;3.22;;;13.40;77.50;;;;;;20996645;28;20056;-60
2022/11/18 02:44:02;;;;;;;14.27;2.78;;;13.30;76.90;;;;;;20996660;28;20052;-60
2022/11/18 02:54:08;;;;;;;9.77;2.85;;;13.10;76.80;;;;;;20995914;28;20059;-60
2022/11/18 03:04:14;;;;;;;11.57;2.67;;;13.20;76.10;;;;;;20995697;28;20083;-60
2022/11/18 03:14:47;;;;;;;10.07;2.50;;;13.10;75.80;;;;;;20995253;28;20059;-60
2022/11/18 03:25:31;;;;;;;9.13;2.28;;;13.00;75.90;;;;;;20994813;28;20057;-60
2022/11/18 03:35:38;;;;;;;12.88;2.53;;;13.10;75.60;;;;;;20994598;28;20092;-60
2022/11/18 03:45:49;;;;;;;9.57;2.17;;;12.80;76.10;;;;;;20995064;28;20113;-60
2022/11/18 03:55:58;;;;;;;8.95;2.50;;;12.80;75.90;;;;;;21005014;28;20048;-60
2022/11/18 04:06:23;;;;;;;6.18;2.05;;;12.70;76.10;;;;;;21007941;28;20055;-60
2022/11/18 04:16:26;;;;;;;8.07;2.08;;;12.70;75.50;;;;;;21008323;28;20056;-60
2022/11/18 04:26:30;;;;;;;6.65;1.65;;;12.60;76.00;;;;;;21006502;28;20049;-62
2022/11/18 04:36:32;;;;;;;8.27;1.90;;;12.60;75.60;;;;;;21006434;28;20052;-59
2022/11/18 04:46:34;;;;;;;10.60;2.20;;;12.50;76.00;;;;;;21006390;28;20496;-59
2022/11/18 04:56:36;;;;;;;10.10;2.53;;;12.60;76.20;;;;;;21004360;28;20055;-59
2022/11/18 05:06:38;;;;;;;8.93;1.90;;;12.60;76.60;;;;;;21003793;28;20430;-59
2022/11/18 05:16:40;;;;;;;9.15;2.58;;;12.60;76.60;;;;;;20986062;28;20048;-58
2022/11/18 05:26:43;;;;;;;8.23;2.28;;;12.60;76.90;;;;;;21001662;28;20044;-60
2022/11/18 05:36:45;;;;;;;8.18;2.50;;;12.60;76.80;;;;;;21001254;28;20045;-60
2022/11/18 05:46:46;;;;;;;6.47;2.22;;;12.70;76.90;;;;;;21000999;28;20439;-60
2022/11/18 05:56:48;;;;;;;8.35;2.33;;;12.70;76.70;;;;;;20981243;28;20105;-60
2022/11/18 06:07:01;;;;;;;7.20;2.22;;;12.80;76.50;;;;;;20999429;28;20048;-61
2022/11/18 06:17:06;;;;;;;7.15;2.22;;;12.80;76.20;;;;;;20997341;28;20389;-60
2022/11/18 06:27:09;;;;;;;8.88;2.30;;;12.80;77.30;;;;;;20997107;28;20061;-61
2022/11/18 06:37:12;;;;;;;9.07;2.70;;;12.80;78.10;;;;;;20997677;28;20088;-60
2022/11/18 06:47:14;;;;;;;10.32;2.70;;;12.70;78.40;;;;;;20997283;28;20048;-60
2022/11/18 06:57:16;;;;;;;8.82;2.83;;;12.60;78.60;;;;;;20996663;28;20084;-61
2022/11/18 07:07:17;;;;;;;16.30;3.78;;;12.50;78.90;;;;;;20995770;28;20048;-61
2022/11/18 07:17:19;;;;;;;12.45;2.95;;;12.40;78.60;;;;;;20995547;28;20048;-61
2022/11/18 07:27:21;;;;;;;10.95;4.47;;;12.50;78.70;;;;;;21001307;28;20091;-60
2022/11/18 07:37:23;;;;;;;7.25;2.83;;;12.50;78.90;;;;;;21010608;28;20055;-60
2022/11/18 07:47:24;;;;;;;7.88;2.72;;;12.50;79.50;;;;;;21009620;28;20048;-60
2022/11/18 07:57:26;;;;;;;4.60;1.98;;;12.40;79.20;;;;;;21009688;28;20461;-62
2022/11/18 08:07:28;;;;;;;5.05;2.28;;;12.50;78.00;;;;;;21007782;28;20423;-62
2022/11/18 08:17:29;;;;;;;4.85;1.70;;;12.60;76.60;;;;;;21007615;28;20148;-61
2022/11/18 08:27:32;;;;;;;7.57;1.65;;;12.70;76.00;;;;;;21006709;28;20045;-62
2022/11/18 08:37:34;;;;;;;6.85;1.60;;;12.80;75.20;;;;;;21004519;28;20084;-59
2022/11/18 08:47:36;;;;;;;6.72;1.92;;;12.70;76.00;;;;;;21005109;28;20041;-60
2022/11/18 08:57:38;;;;;;;4.28;2.22;;;12.70;75.80;;;;;;21004624;28;20492;-61
2022/11/18 09:07:39;;;;;;;6.47;1.80;;;12.70;74.80;;;;;;21003492;28;20158;-62
2022/11/18 09:17:41;;;;;;;4.78;1.80;;;12.60;73.80;;;;;;21002834;28;20048;-63
2022/11/18 09:27:43;;;;;;;4.30;1.30;;;12.50;73.10;;;;;;21002639;28;20418;-63
2022/11/18 09:37:45;;;;;;;4.90;2.92;;;12.40;72.40;;;;;;21002335;28;20055;-61
2022/11/18 09:47:47;;;;;;;5.65;1.40;;;12.80;72.20;;;;;;21000588;28;20270;-61
2022/11/18 09:57:57;;;;;;;2.60;0.80;;;13.00;71.50;;;;;;21000360;28;20503;-63
2022/11/18 10:08:03;;;;;;;2.83;0.90;;;12.90;70.30;;;;;;20933379;28;20053;-65
2022/11/18 10:18:14;;;;;;;1.48;0.60;;;13.00;71.00;;;;;;20914666;28;20080;-62
2022/11/18 10:28:22;;;;;;;3.03;1.45;;;13.00;68.70;;;;;;20913890;28;20052;-60
2022/11/18 10:38:24;;;;;;;3.63;1.90;;;13.20;68.20;;;;;;20913908;28;20080;-64
2022/11/18 10:48:26;;;;;;;3.42;1.00;;;13.90;70.80;;;;;;20912982;28;20063;-65
2022/11/18 10:58:36;;;;;;;2.05;0.98;;;13.70;62.30;;;;;;20912142;28;20068;-60
2022/11/18 11:08:53;;;;;;;2.25;0.50;;;14.10;62.30;;;;;;20912210;28;20098;-63
2022/11/18 11:18:59;;;;;;;2.95;0.63;;;13.90;55.70;;;;;;20911426;28;20056;-61
2022/11/18 11:29:19;;;;;;;1.02;0.52;;;13.70;55.30;;;;;;20911399;28;20049;-61
2022/11/18 11:39:54;;;;;;;1.75;0.75;;;14.00;53.60;;;;;;20911059;28;20045;-60
2022/11/18 11:50:00;;;;;;;25.70;18.83;;;14.10;53.80;;;;;;20911391;28;20451;-56
2022/11/18 12:00:11;;;;;;;17.20;11.02;;;15.10;63.10;;;;;;20951028;28;20334;-56
2022/11/18 12:10:15;;;;;;;4.85;2.55;;;16.10;53.70;;;;;;20968896;28;20044;-57
2022/11/18 12:20:43;;;;;;;1.80;0.70;;;16.50;49.90;;;;;;21007287;28;20048;-59
2022/11/18 12:30:45;;;;;;;1.65;0.80;;;15.70;46.30;;;;;;21005905;28;20059;-59
2022/11/18 12:40:47;;;;;;;1.95;0.70;;;15.00;49.10;;;;;;21006073;28;20048;-61
2022/11/18 12:50:54;;;;;;;1.35;0.50;;;14.70;48.30;;;;;;21006482;28;20393;-59
2022/11/18 13:01:07;;;;;;;1.13;0.70;;;14.60;47.70;;;;;;21004471;28;20095;-59
2022/11/18 13:32:14;;;;;;;2.85;1.20;;;14.40;47.10;;;;;;20986825;28;20056;-58
2022/11/18 13:42:25;;;;;;;2.25;1.10;;;14.40;48.50;;;;;;21000998;28;20408;-65
2022/11/18 13:53:17;;;;;;;1.70;1.10;;;14.60;46.60;;;;;;20999795;28;20052;-64
2022/11/18 14:03:26;;;;;;;2.17;0.82;;;14.60;46.80;;;;;;21000540;28;20050;-63
2022/11/18 14:13:35;;;;;;;1.63;0.82;;;14.50;46.00;;;;;;20999645;28;20542;-66
2022/11/18 14:23:41;;;;;;;1.65;0.68;;;14.60;44.60;;;;;;20998157;28;20055;-63
2022/11/18 14:34:05;;;;;;;2.35;1.15;;;14.50;43.40;;;;;;20997088;28;20157;-62
2022/11/18 14:44:07;;;;;;;1.10;0.50;;;14.50;43.20;;;;;;20998156;28;20404;-64
2022/11/18 14:54:20;;;;;;;2.40;0.60;;;14.20;43.20;;;;;;20997296;28;20052;-65
2022/11/18 15:04:22;;;;;;;0.85;0.60;;;14.30;44.20;;;;;;20978590;28;20071;-63
2022/11/18 15:14:23;;;;;;;2.58;0.70;;;14.20;45.10;;;;;;20995562;28;20058;-62
2022/11/18 15:24:26;;;;;;;2.17;1.02;;;14.10;44.50;;;;;;20994990;28;20048;-64
2022/11/18 15:34:27;;;;;;;2.05;0.60;;;14.00;44.70;;;;;;20994972;28;20068;-63
2022/11/18 15:44:29;;;;;;;16.70;10.57;;;13.90;44.20;;;;;;20983975;28;20047;-62
2022/11/18 15:54:31;;;;;;;3.28;0.70;;;13.80;43.60;;;;;;21009988;28;20052;-62
2022/11/18 16:04:33;;;;;;;1.35;0.73;;;13.70;44.70;;;;;;21007878;28;20126;-63
2022/11/18 16:14:37;;;;;;;1.92;1.02;;;13.50;45.70;;;;;;20990536;28;20159;-63
2022/11/18 16:24:39;;;;;;;3.08;1.00;;;13.50;46.60;;;;;;20996372;28;20049;-62
2022/11/18 16:34:41;;;;;;;1.70;0.70;;;14.20;48.20;;;;;;20924388;28;20084;-61
2022/11/18 16:44:42;;;;;;;1.15;0.77;;;13.70;46.30;;;;;;20926630;28;20051;-64
2022/11/18 16:54:44;;;;;;;1.58;0.50;;;12.80;47.20;;;;;;20925678;28;20106;-62
2022/11/18 17:04:46;;;;;;;3.47;0.90;;;12.70;48.30;;;;;;20923979;28;20055;-61
2022/11/18 17:14:47;;;;;;;3.63;1.02;;;12.50;49.30;;;;;;20921690;28;20508;-64
2022/11/18 17:24:50;;;;;;;3.00;0.80;;;12.70;50.20;;;;;;20932788;28;20385;-64
2022/11/18 17:34:52;;;;;;;3.47;0.90;;;12.70;50.10;;;;;;21002803;28;20443;-65
2022/11/18 17:44:54;;;;;;;2.65;1.10;;;12.80;50.10;;;;;;21001540;28;20067;-63
2022/11/18 17:54:56;;;;;;;6.25;1.20;;;12.90;52.00;;;;;;20999662;28;20048;-61
2022/11/18 18:04:59;;;;;;;2.17;1.13;;;12.60;50.20;;;;;;21000425;28;20052;-66
2022/11/18 18:15:01;;;;;;;2.92;1.20;;;12.40;50.00;;;;;;20999225;28;20052;-61
2022/11/18 18:25:04;;;;;;;5.15;1.17;;;13.60;51.30;;;;;;20998543;28;20458;-65
2022/11/18 18:35:06;;;;;;;3.95;1.08;;;13.30;49.30;;;;;;20997110;28;20063;-65
2022/11/18 18:55:31;;;;;;;4.25;1.77;;;12.70;49.80;;;;;;20996419;28;20404;-63
2022/11/18 19:05:33;;;;;;;4.35;1.55;;;12.50;52.40;;;;;;20977206;28;20503;-61
2022/11/18 19:15:37;;;;;;;1.92;1.08;;;12.50;52.10;;;;;;20994685;28;20057;-62
2022/11/18 19:25:39;;;;;;;4.45;1.98;;;12.50;50.40;;;;;;21006195;28;20190;-60
2022/11/18 19:35:41;;;;;;;4.50;1.60;;;12.40;51.10;;;;;;20993706;28;20087;-67
2022/11/18 19:45:49;;;;;;;2.08;1.20;;;;;;;;;;21014853;28;20109;-60
2022/11/18 19:55:55;;;;;;;2.42;1.30;;;;;;;;;;21010509;28;20408;-61
2022/11/18 20:06:00;;;;;;;4.57;1.58;;;;;;;;;;21009883;28;20170;-61
2022/11/18 20:16:07;;;;;;;4.18;1.27;;;;;;;;;;21008269;28;20051;-61
2022/11/18 20:26:10;;;;;;;7.28;1.98;;;;;;;;;;21006997;28;20055;-60
2022/11/18 20:36:13;;;;;;;4.13;1.80;;;;;;;;;;21005872;28;20385;-60
2022/11/18 20:46:16;;;;;;;4.60;2.17;;;;;;;;;;21005951;28;20044;-62
2022/11/18 20:56:19;;;;;;;5.05;2.55;;;;;;;;;;21006141;28;20060;-62
2022/11/18 21:06:25;;;;;;;5.85;2.60;;;;;;;;;;21004888;28;20473;-62
2022/11/18 21:16:28;;;;;;;5.68;2.30;;;;;;;;;;21003769;28;20088;-61
2022/11/18 21:26:32;;;;;;;4.18;1.92;;;;;;;;;;21002962;28;20558;-61
2022/11/18 21:36:34;;;;;;;4.93;1.98;;;;;;;;;;21004239;28;20396;-63
2022/11/18 21:46:37;;;;;;;3.47;1.67;;;;;;;;;;21001607;28;20455;-62
2022/11/18 21:56:39;;;;;;;5.93;2.47;;;;;;;;;;21000520;28;20049;-61
2022/11/18 22:06:41;;;;;;;4.70;1.63;;;;;;;;;;20999774;28;20049;-62
2022/11/18 22:16:43;;;;;;;4.68;1.58;;;;;;;;;;20998861;28;20086;-62
2022/11/18 22:26:46;;;;;;;6.65;1.98;;;;;;;;;;20997621;28;20097;-60
2022/11/18 22:36:48;;;;;;;4.30;1.98;;;;;;;;;;20997362;28;20097;-62
2022/11/18 22:46:51;;;;;;;4.00;1.85;;;;;;;;;;20996846;28;20044;-61
2022/11/18 22:56:53;;;;;;;2.92;0.98;;;;;;;;;;20996091;28;20045;-60
2022/11/18 23:06:55;;;;;;;3.22;1.20;;;;;;;;;;20996115;28;20052;-61
2022/11/18 23:16:57;;;;;;;4.57;1.85;;;;;;;;;;20995143;28;20147;-61
2022/11/18 23:26:59;;;;;;;3.38;1.70;;;;;;;;;;20994590;28;20052;-61
2022/11/18 23:37:01;;;;;;;2.17;1.30;;;;;;;;;;20995278;28;20489;-61
2022/11/18 23:47:03;;;;;;;2.30;1.30;;;;;;;;;;20994764;28;20076;-61
2022/11/18 23:57:06;;;;;;;2.75;1.00;;;;;;;;;;20995122;28;20080;-62
